sensor_id;sensor_type;location;lat;lon;timestamp;temperature;humidity
60495;DHT22;46342;49.046;11.920;2022-10-26T00:02:18;12.50;69.50
60495;DHT22;46342;49.046;11.920;2022-10-26T00:04:43;12.40;69.20
60495;DHT22;46342;49.046;11.920;2022-10-26T00:07:09;12.50;69.10
60495;DHT22;46342;49.046;11.920;2022-10-26T00:09:34;12.40;68.90
60495;DHT22;46342;49.046;11.920;2022-10-26T00:12:00;12.40;68.80
60495;DHT22;46342;49.046;11.920;2022-10-26T00:14:26;12.30;68.60
60495;DHT22;46342;49.046;11.920;2022-10-26T00:16:52;12.30;68.60
60495;DHT22;46342;49.046;11.920;2022-10-26T00:19:18;12.20;68.60
60495;DHT22;46342;49.046;11.920;2022-10-26T00:21:43;12.30;69.10
60495;DHT22;46342;49.046;11.920;2022-10-26T00:24:10;12.20;69.40
60495;DHT22;46342;49.046;11.920;2022-10-26T00:26:36;12.20;70.20
60495;DHT22;46342;49.046;11.920;2022-10-26T00:29:02;12.20;70.30
60495;DHT22;46342;49.046;11.920;2022-10-26T00:31:28;12.20;70.90
60495;DHT22;46342;49.046;11.920;2022-10-26T00:33:54;12.30;71.10
60495;DHT22;46342;49.046;11.920;2022-10-26T00:36:22;12.30;71.50
60495;DHT22;46342;49.046;11.920;2022-10-26T00:38:49;12.30;71.70
60495;DHT22;46342;49.046;11.920;2022-10-26T00:41:17;12.30;72.10
60495;DHT22;46342;49.046;11.920;2022-10-26T00:43:44;12.40;72.40
60495;DHT22;46342;49.046;11.920;2022-10-26T00:46:15;12.40;72.60
60495;DHT22;46342;49.046;11.920;2022-10-26T00:48:44;12.50;73.20
60495;DHT22;46342;49.046;11.920;2022-10-26T00:51:19;12.50;73.20
60495;DHT22;46342;49.046;11.920;2022-10-26T00:53:47;12.60;73.50
60495;DHT22;46342;49.046;11.920;2022-10-26T00:56:13;12.60;73.10
60495;DHT22;46342;49.046;11.920;2022-10-26T00:58:39;12.70;73.40
60495;DHT22;46342;49.046;11.920;2022-10-26T01:01:05;12.70;73.50
60495;DHT22;46342;49.046;11.920;2022-10-26T01:03:31;12.70;73.50
60495;DHT22;46342;49.046;11.920;2022-10-26T01:05:58;12.80;73.80
60495;DHT22;46342;49.046;11.920;2022-10-26T01:08:25;12.90;73.80
60495;DHT22;46342;49.046;11.920;2022-10-26T01:10:53;12.90;73.90
60495;DHT22;46342;49.046;11.920;2022-10-26T01:13:20;13.00;73.90
60495;DHT22;46342;49.046;11.920;2022-10-26T01:21:43;13.10;75.00
60495;DHT22;46342;49.046;11.920;2022-10-26T01:32:44;13.20;73.60
60495;DHT22;46342;49.046;11.920;2022-10-26T01:38:21;13.30;74.30
60495;DHT22;46342;49.046;11.920;2022-10-26T01:43:28;13.40;74.90
60495;DHT22;46342;49.046;11.920;2022-10-26T01:45:56;13.30;73.80
60495;DHT22;46342;49.046;11.920;2022-10-26T01:48:23;13.40;73.70
60495;DHT22;46342;49.046;11.920;2022-10-26T01:50:52;13.30;73.60
60495;DHT22;46342;49.046;11.920;2022-10-26T01:53:18;13.40;74.00
60495;DHT22;46342;49.046;11.920;2022-10-26T01:55:54;13.40;74.70
60495;DHT22;46342;49.046;11.920;2022-10-26T02:11:00;13.50;74.90
60495;DHT22;46342;49.046;11.920;2022-10-26T02:13:31;13.50;74.60
60495;DHT22;46342;49.046;11.920;2022-10-26T02:16:25;13.50;73.30
60495;DHT22;46342;49.046;11.920;2022-10-26T02:19:01;13.50;74.70
60495;DHT22;46342;49.046;11.920;2022-10-26T02:21:37;13.50;74.00
60495;DHT22;46342;49.046;11.920;2022-10-26T02:24:06;13.50;73.60
60495;DHT22;46342;49.046;11.920;2022-10-26T02:26:33;13.50;73.40
60495;DHT22;46342;49.046;11.920;2022-10-26T02:29:04;13.50;73.10
60495;DHT22;46342;49.046;11.920;2022-10-26T02:31:31;13.50;73.10
60495;DHT22;46342;49.046;11.920;2022-10-26T02:34:02;13.50;72.80
60495;DHT22;46342;49.046;11.920;2022-10-26T02:36:31;13.50;72.90
60495;DHT22;46342;49.046;11.920;2022-10-26T02:38:59;13.50;72.70
60495;DHT22;46342;49.046;11.920;2022-10-26T02:41:27;13.40;72.50
60495;DHT22;46342;49.046;11.920;2022-10-26T02:44:03;13.40;72.80
60495;DHT22;46342;49.046;11.920;2022-10-26T02:46:30;13.40;73.30
60495;DHT22;46342;49.046;11.920;2022-10-26T02:48:56;13.40;72.90
60495;DHT22;46342;49.046;11.920;2022-10-26T02:51:44;13.40;73.00
60495;DHT22;46342;49.046;11.920;2022-10-26T02:54:23;13.50;74.00
60495;DHT22;46342;49.046;11.920;2022-10-26T02:57:06;13.40;73.50
60495;DHT22;46342;49.046;11.920;2022-10-26T02:59:35;13.40;73.60
60495;DHT22;46342;49.046;11.920;2022-10-26T03:02:02;13.40;73.30
60495;DHT22;46342;49.046;11.920;2022-10-26T03:04:33;13.40;73.30
60495;DHT22;46342;49.046;11.920;2022-10-26T03:06:59;13.50;73.80
60495;DHT22;46342;49.046;11.920;2022-10-26T03:09:25;13.40;73.30
60495;DHT22;46342;49.046;11.920;2022-10-26T03:11:51;13.40;73.30
60495;DHT22;46342;49.046;11.920;2022-10-26T03:14:17;13.50;73.40
60495;DHT22;46342;49.046;11.920;2022-10-26T03:16:43;13.50;73.40
60495;DHT22;46342;49.046;11.920;2022-10-26T03:19:08;13.40;73.40
60495;DHT22;46342;49.046;11.920;2022-10-26T03:21:34;13.50;73.50
60495;DHT22;46342;49.046;11.920;2022-10-26T03:23:59;13.50;73.50
60495;DHT22;46342;49.046;11.920;2022-10-26T03:26:25;13.50;73.50
60495;DHT22;46342;49.046;11.920;2022-10-26T03:28:50;13.50;73.50
60495;DHT22;46342;49.046;11.920;2022-10-26T03:31:16;13.50;73.60
60495;DHT22;46342;49.046;11.920;2022-10-26T03:33:42;13.60;73.60
60495;DHT22;46342;49.046;11.920;2022-10-26T03:36:08;13.50;73.50
60495;DHT22;46342;49.046;11.920;2022-10-26T03:38:33;13.50;74.50
60495;DHT22;46342;49.046;11.920;2022-10-26T03:40:59;13.50;73.50
60495;DHT22;46342;49.046;11.920;2022-10-26T03:43:25;13.60;73.60
60495;DHT22;46342;49.046;11.920;2022-10-26T03:45:51;13.60;73.70
60495;DHT22;46342;49.046;11.920;2022-10-26T03:48:16;13.60;73.60
60495;DHT22;46342;49.046;11.920;2022-10-26T03:50:42;13.60;73.60
60495;DHT22;46342;49.046;11.920;2022-10-26T03:53:08;13.60;73.60
60495;DHT22;46342;49.046;11.920;2022-10-26T03:55:33;13.60;73.60
60495;DHT22;46342;49.046;11.920;2022-10-26T03:57:59;13.60;73.60
60495;DHT22;46342;49.046;11.920;2022-10-26T04:00:24;13.60;73.60
60495;DHT22;46342;49.046;11.920;2022-10-26T04:02:58;13.60;73.60
60495;DHT22;46342;49.046;11.920;2022-10-26T04:05:25;13.70;74.00
60495;DHT22;46342;49.046;11.920;2022-10-26T04:07:52;13.60;73.70
60495;DHT22;46342;49.046;11.920;2022-10-26T04:10:18;13.70;73.80
60495;DHT22;46342;49.046;11.920;2022-10-26T04:12:44;13.70;73.60
60495;DHT22;46342;49.046;11.920;2022-10-26T04:15:09;13.70;73.60
60495;DHT22;46342;49.046;11.920;2022-10-26T04:17:35;13.60;73.50
60495;DHT22;46342;49.046;11.920;2022-10-26T04:20:01;13.60;73.50
60495;DHT22;46342;49.046;11.920;2022-10-26T04:22:26;13.70;73.60
60495;DHT22;46342;49.046;11.920;2022-10-26T04:24:52;13.60;73.40
60495;DHT22;46342;49.046;11.920;2022-10-26T04:27:17;13.70;73.60
60495;DHT22;46342;49.046;11.920;2022-10-26T04:29:43;13.60;73.50
60495;DHT22;46342;49.046;11.920;2022-10-26T04:32:09;13.70;73.50
60495;DHT22;46342;49.046;11.920;2022-10-26T04:34:34;13.70;73.50
60495;DHT22;46342;49.046;11.920;2022-10-26T04:37:00;13.70;73.50
60495;DHT22;46342;49.046;11.920;2022-10-26T04:39:25;13.70;73.50
60495;DHT22;46342;49.046;11.920;2022-10-26T04:41:53;13.70;73.50
60495;DHT22;46342;49.046;11.920;2022-10-26T04:44:18;13.70;73.70
60495;DHT22;46342;49.046;11.920;2022-10-26T04:46:44;13.70;73.50
60495;DHT22;46342;49.046;11.920;2022-10-26T04:49:10;13.70;73.50
60495;DHT22;46342;49.046;11.920;2022-10-26T04:51:35;13.70;73.50
60495;DHT22;46342;49.046;11.920;2022-10-26T04:54:01;13.70;73.50
60495;DHT22;46342;49.046;11.920;2022-10-26T04:56:28;13.70;73.60
60495;DHT22;46342;49.046;11.920;2022-10-26T04:58:53;13.70;73.70
60495;DHT22;46342;49.046;11.920;2022-10-26T05:01:19;13.70;73.50
60495;DHT22;46342;49.046;11.920;2022-10-26T05:03:48;13.70;73.70
60495;DHT22;46342;49.046;11.920;2022-10-26T05:06:15;13.70;73.80
60495;DHT22;46342;49.046;11.920;2022-10-26T05:08:40;13.70;73.60
60495;DHT22;46342;49.046;11.920;2022-10-26T05:11:06;13.70;73.70
60495;DHT22;46342;49.046;11.920;2022-10-26T05:13:31;13.70;73.70
60495;DHT22;46342;49.046;11.920;2022-10-26T05:15:57;13.70;73.70
60495;DHT22;46342;49.046;11.920;2022-10-26T05:18:23;13.70;73.70
60495;DHT22;46342;49.046;11.920;2022-10-26T05:20:53;13.70;73.80
60495;DHT22;46342;49.046;11.920;2022-10-26T05:23:20;13.70;73.90
60495;DHT22;46342;49.046;11.920;2022-10-26T05:25:47;13.70;73.70
60495;DHT22;46342;49.046;11.920;2022-10-26T05:28:13;13.70;73.70
60495;DHT22;46342;49.046;11.920;2022-10-26T05:30:40;13.70;73.90
60495;DHT22;46342;49.046;11.920;2022-10-26T05:33:07;13.70;73.90
60495;DHT22;46342;49.046;11.920;2022-10-26T05:35:33;13.70;73.80
60495;DHT22;46342;49.046;11.920;2022-10-26T05:37:58;13.80;73.90
60495;DHT22;46342;49.046;11.920;2022-10-26T05:40:25;13.70;73.90
60495;DHT22;46342;49.046;11.920;2022-10-26T05:42:50;13.70;73.80
60495;DHT22;46342;49.046;11.920;2022-10-26T05:45:16;13.70;73.90
60495;DHT22;46342;49.046;11.920;2022-10-26T05:47:45;13.70;73.90
60495;DHT22;46342;49.046;11.920;2022-10-26T05:50:12;13.70;73.90
60495;DHT22;46342;49.046;11.920;2022-10-26T05:52:44;13.70;73.90
60495;DHT22;46342;49.046;11.920;2022-10-26T05:55:12;13.70;74.10
60495;DHT22;46342;49.046;11.920;2022-10-26T05:57:39;13.70;73.90
60495;DHT22;46342;49.046;11.920;2022-10-26T06:00:14;13.70;73.90
60495;DHT22;46342;49.046;11.920;2022-10-26T06:05:20;13.80;74.50
60495;DHT22;46342;49.046;11.920;2022-10-26T06:07:46;13.80;74.30
60495;DHT22;46342;49.046;11.920;2022-10-26T06:10:13;13.70;73.90
60495;DHT22;46342;49.046;11.920;2022-10-26T06:12:39;13.70;73.90
60495;DHT22;46342;49.046;11.920;2022-10-26T06:15:05;13.70;73.90
60495;DHT22;46342;49.046;11.920;2022-10-26T06:20:26;13.80;74.60
60495;DHT22;46342;49.046;11.920;2022-10-26T06:23:12;13.80;74.50
60495;DHT22;46342;49.046;11.920;2022-10-26T06:28:42;13.80;74.30
60495;DHT22;46342;49.046;11.920;2022-10-26T06:31:12;13.80;74.50
60495;DHT22;46342;49.046;11.920;2022-10-26T06:33:38;13.80;74.20
60495;DHT22;46342;49.046;11.920;2022-10-26T06:38:42;13.80;74.70
60495;DHT22;46342;49.046;11.920;2022-10-26T06:41:13;13.80;74.60
60495;DHT22;46342;49.046;11.920;2022-10-26T06:43:40;13.80;74.30
60495;DHT22;46342;49.046;11.920;2022-10-26T06:51:14;13.80;74.70
60495;DHT22;46342;49.046;11.920;2022-10-26T06:53:55;13.80;74.50
60495;DHT22;46342;49.046;11.920;2022-10-26T06:56:22;13.90;76.00
60495;DHT22;46342;49.046;11.920;2022-10-26T06:58:50;13.80;74.40
60495;DHT22;46342;49.046;11.920;2022-10-26T07:01:17;13.90;74.60
60495;DHT22;46342;49.046;11.920;2022-10-26T07:03:43;13.90;74.60
60495;DHT22;46342;49.046;11.920;2022-10-26T07:06:08;13.90;74.50
60495;DHT22;46342;49.046;11.920;2022-10-26T07:08:34;13.90;74.50
60495;DHT22;46342;49.046;11.920;2022-10-26T07:11:00;13.90;74.60
60495;DHT22;46342;49.046;11.920;2022-10-26T07:13:25;13.90;74.60
60495;DHT22;46342;49.046;11.920;2022-10-26T07:15:51;13.90;74.60
60495;DHT22;46342;49.046;11.920;2022-10-26T07:18:17;13.90;74.70
60495;DHT22;46342;49.046;11.920;2022-10-26T07:20:42;13.90;74.70
60495;DHT22;46342;49.046;11.920;2022-10-26T07:23:09;13.90;74.70
60495;DHT22;46342;49.046;11.920;2022-10-26T07:25:37;13.90;74.70
60495;DHT22;46342;49.046;11.920;2022-10-26T07:28:05;14.00;74.80
60495;DHT22;46342;49.046;11.920;2022-10-26T07:30:32;13.90;74.80
60495;DHT22;46342;49.046;11.920;2022-10-26T07:33:03;14.00;74.90
60495;DHT22;46342;49.046;11.920;2022-10-26T07:35:29;14.00;75.40
60495;DHT22;46342;49.046;11.920;2022-10-26T07:37:58;14.00;75.10
60495;DHT22;46342;49.046;11.920;2022-10-26T07:40:24;14.00;75.70
60495;DHT22;46342;49.046;11.920;2022-10-26T07:42:50;14.10;75.60
60495;DHT22;46342;49.046;11.920;2022-10-26T07:45:16;14.10;75.60
60495;DHT22;46342;49.046;11.920;2022-10-26T07:47:41;14.10;75.60
60495;DHT22;46342;49.046;11.920;2022-10-26T07:50:07;14.10;75.60
60495;DHT22;46342;49.046;11.920;2022-10-26T07:52:33;14.20;75.60
60495;DHT22;46342;49.046;11.920;2022-10-26T07:55:01;14.20;75.60
60495;DHT22;46342;49.046;11.920;2022-10-26T07:57:27;14.20;75.60
60495;DHT22;46342;49.046;11.920;2022-10-26T07:59:52;14.20;75.70
60495;DHT22;46342;49.046;11.920;2022-10-26T08:02:18;14.30;75.80
60495;DHT22;46342;49.046;11.920;2022-10-26T08:04:43;14.30;75.90
60495;DHT22;46342;49.046;11.920;2022-10-26T08:07:09;14.30;75.90
60495;DHT22;46342;49.046;11.920;2022-10-26T08:09:35;14.40;76.20
60495;DHT22;46342;49.046;11.920;2022-10-26T08:12:00;14.40;76.20
60495;DHT22;46342;49.046;11.920;2022-10-26T08:14:26;14.40;76.20
60495;DHT22;46342;49.046;11.920;2022-10-26T08:16:52;14.50;76.20
60495;DHT22;46342;49.046;11.920;2022-10-26T08:19:18;14.50;76.30
60495;DHT22;46342;49.046;11.920;2022-10-26T08:21:43;14.60;76.40
60495;DHT22;46342;49.046;11.920;2022-10-26T08:24:09;14.60;76.30
60495;DHT22;46342;49.046;11.920;2022-10-26T08:26:35;14.70;76.30
60495;DHT22;46342;49.046;11.920;2022-10-26T08:29:00;14.70;77.10
60495;DHT22;46342;49.046;11.920;2022-10-26T08:31:26;14.70;76.10
60495;DHT22;46342;49.046;11.920;2022-10-26T08:33:52;14.70;76.10
60495;DHT22;46342;49.046;11.920;2022-10-26T08:36:22;14.70;76.10
60495;DHT22;46342;49.046;11.920;2022-10-26T08:38:48;14.80;76.50
60495;DHT22;46342;49.046;11.920;2022-10-26T08:41:14;14.80;76.10
60495;DHT22;46342;49.046;11.920;2022-10-26T08:43:46;14.90;76.30
60495;DHT22;46342;49.046;11.920;2022-10-26T08:46:21;14.90;76.60
60495;DHT22;46342;49.046;11.920;2022-10-26T08:48:54;14.90;76.70
60495;DHT22;46342;49.046;11.920;2022-10-26T08:51:31;15.00;76.90
60495;DHT22;46342;49.046;11.920;2022-10-26T08:56:57;15.00;77.30
60495;DHT22;46342;49.046;11.920;2022-10-26T09:01:54;15.10;76.80
60495;DHT22;46342;49.046;11.920;2022-10-26T09:04:25;15.10;76.40
60495;DHT22;46342;49.046;11.920;2022-10-26T09:17:37;15.20;76.70
60495;DHT22;46342;49.046;11.920;2022-10-26T09:25:26;15.40;77.00
60495;DHT22;46342;49.046;11.920;2022-10-26T09:27:59;15.40;76.60
60495;DHT22;46342;49.046;11.920;2022-10-26T09:30:26;15.40;76.60
60495;DHT22;46342;49.046;11.920;2022-10-26T09:32:58;15.50;76.30
60495;DHT22;46342;49.046;11.920;2022-10-26T09:35:27;15.50;76.50
60495;DHT22;46342;49.046;11.920;2022-10-26T09:37:56;15.50;76.30
60495;DHT22;46342;49.046;11.920;2022-10-26T09:40:35;15.50;76.30
60495;DHT22;46342;49.046;11.920;2022-10-26T09:43:16;15.60;76.70
60495;DHT22;46342;49.046;11.920;2022-10-26T09:45:49;15.60;76.30
60495;DHT22;46342;49.046;11.920;2022-10-26T09:48:38;15.60;76.70
60495;DHT22;46342;49.046;11.920;2022-10-26T09:51:05;15.70;77.00
60495;DHT22;46342;49.046;11.920;2022-10-26T09:53:31;15.70;76.60
60495;DHT22;46342;49.046;11.920;2022-10-26T09:56:03;15.70;76.80
60495;DHT22;46342;49.046;11.920;2022-10-26T09:58:34;15.80;77.40
60495;DHT22;46342;49.046;11.920;2022-10-26T10:01:00;15.80;77.40
60495;DHT22;46342;49.046;11.920;2022-10-26T10:03:29;15.90;77.60
60495;DHT22;46342;49.046;11.920;2022-10-26T10:06:15;15.90;77.90
60495;DHT22;46342;49.046;11.920;2022-10-26T10:08:42;16.00;78.40
60495;DHT22;46342;49.046;11.920;2022-10-26T10:11:10;16.10;77.70
60495;DHT22;46342;49.046;11.920;2022-10-26T10:13:39;16.20;78.00
60495;DHT22;46342;49.046;11.920;2022-10-26T10:16:22;16.20;77.80
60495;DHT22;46342;49.046;11.920;2022-10-26T10:18:56;16.30;78.10
60495;DHT22;46342;49.046;11.920;2022-10-26T10:21:35;16.40;78.10
60495;DHT22;46342;49.046;11.920;2022-10-26T10:24:01;16.50;78.30
60495;DHT22;46342;49.046;11.920;2022-10-26T10:26:27;16.50;77.70
60495;DHT22;46342;49.046;11.920;2022-10-26T10:29:00;16.60;77.60
60495;DHT22;46342;49.046;11.920;2022-10-26T10:31:30;16.70;77.50
60495;DHT22;46342;49.046;11.920;2022-10-26T10:33:55;16.70;77.40
60495;DHT22;46342;49.046;11.920;2022-10-26T10:36:23;16.90;77.60
60495;DHT22;46342;49.046;11.920;2022-10-26T10:38:51;16.90;77.20
60495;DHT22;46342;49.046;11.920;2022-10-26T10:41:20;16.90;76.90
60495;DHT22;46342;49.046;11.920;2022-10-26T10:44:01;17.00;76.90
60495;DHT22;46342;49.046;11.920;2022-10-26T10:46:27;17.00;76.80
60495;DHT22;46342;49.046;11.920;2022-10-26T10:49:05;17.10;76.80
60495;DHT22;46342;49.046;11.920;2022-10-26T10:51:37;17.20;76.80
60495;DHT22;46342;49.046;11.920;2022-10-26T10:54:04;17.20;76.90
60495;DHT22;46342;49.046;11.920;2022-10-26T10:56:41;17.20;76.90
60495;DHT22;46342;49.046;11.920;2022-10-26T10:59:35;17.30;76.90
60495;DHT22;46342;49.046;11.920;2022-10-26T11:02:12;17.40;76.90
60495;DHT22;46342;49.046;11.920;2022-10-26T11:07:41;17.50;76.90
60495;DHT22;46342;49.046;11.920;2022-10-26T11:10:13;17.50;76.80
60495;DHT22;46342;49.046;11.920;2022-10-26T11:12:50;17.60;76.90
60495;DHT22;46342;49.046;11.920;2022-10-26T11:15:20;17.70;76.60
60495;DHT22;46342;49.046;11.920;2022-10-26T11:18:13;17.70;76.50
60495;DHT22;46342;49.046;11.920;2022-10-26T11:20:55;17.80;76.20
60495;DHT22;46342;49.046;11.920;2022-10-26T11:23:37;17.80;75.90
60495;DHT22;46342;49.046;11.920;2022-10-26T11:26:11;17.90;76.10
60495;DHT22;46342;49.046;11.920;2022-10-26T11:28:47;17.90;75.90
60495;DHT22;46342;49.046;11.920;2022-10-26T11:31:31;18.00;76.10
60495;DHT22;46342;49.046;11.920;2022-10-26T11:36:38;18.00;76.10
60495;DHT22;46342;49.046;11.920;2022-10-26T11:42:00;18.10;76.10
60495;DHT22;46342;49.046;11.920;2022-10-26T11:44:38;18.10;76.00
60495;DHT22;46342;49.046;11.920;2022-10-26T11:47:11;18.20;75.90
60495;DHT22;46342;49.046;11.920;2022-10-26T11:49:43;18.20;75.90
60495;DHT22;46342;49.046;11.920;2022-10-26T11:52:27;18.20;75.70
60495;DHT22;46342;49.046;11.920;2022-10-26T11:54:57;18.30;75.10
60495;DHT22;46342;49.046;11.920;2022-10-26T11:57:26;18.30;75.40
60495;DHT22;46342;49.046;11.920;2022-10-26T12:02:28;18.30;75.30
60495;DHT22;46342;49.046;11.920;2022-10-26T12:05:02;18.30;75.30
60495;DHT22;46342;49.046;11.920;2022-10-26T12:07:32;18.40;75.10
60495;DHT22;46342;49.046;11.920;2022-10-26T12:10:00;18.40;75.20
60495;DHT22;46342;49.046;11.920;2022-10-26T12:12:51;18.40;75.20
60495;DHT22;46342;49.046;11.920;2022-10-26T12:15:24;18.40;74.60
60495;DHT22;46342;49.046;11.920;2022-10-26T12:17:58;18.40;74.70
60495;DHT22;46342;49.046;11.920;2022-10-26T12:23:18;18.50;74.50
60495;DHT22;46342;49.046;11.920;2022-10-26T12:25:44;18.50;74.90
60495;DHT22;46342;49.046;11.920;2022-10-26T12:34:25;18.60;74.90
60495;DHT22;46342;49.046;11.920;2022-10-26T12:39:32;18.60;75.10
60495;DHT22;46342;49.046;11.920;2022-10-26T12:44:59;18.70;74.60
60495;DHT22;46342;49.046;11.920;2022-10-26T13:00:22;18.80;73.80
60495;DHT22;46342;49.046;11.920;2022-10-26T13:06:03;18.80;73.30
60495;DHT22;46342;49.046;11.920;2022-10-26T13:08:43;18.80;73.30
60495;DHT22;46342;49.046;11.920;2022-10-26T13:11:20;18.80;73.60
60495;DHT22;46342;49.046;11.920;2022-10-26T13:13:55;18.80;73.70
60495;DHT22;46342;49.046;11.920;2022-10-26T13:16:23;18.80;73.90
60495;DHT22;46342;49.046;11.920;2022-10-26T13:18:50;18.70;73.60
60495;DHT22;46342;49.046;11.920;2022-10-26T13:21:17;18.70;73.80
60495;DHT22;46342;49.046;11.920;2022-10-26T13:26:20;18.80;73.70
60495;DHT22;46342;49.046;11.920;2022-10-26T13:28:57;18.80;73.80
60495;DHT22;46342;49.046;11.920;2022-10-26T13:39:05;18.70;73.30
60495;DHT22;46342;49.046;11.920;2022-10-26T13:41:36;18.70;73.20
60495;DHT22;46342;49.046;11.920;2022-10-26T13:44:05;18.70;73.40
60495;DHT22;46342;49.046;11.920;2022-10-26T13:46:35;18.70;73.60
60495;DHT22;46342;49.046;11.920;2022-10-26T13:49:17;18.70;73.60
60495;DHT22;46342;49.046;11.920;2022-10-26T13:51:47;18.70;73.20
60495;DHT22;46342;49.046;11.920;2022-10-26T13:54:38;18.70;73.60
60495;DHT22;46342;49.046;11.920;2022-10-26T13:57:12;18.70;73.60
60495;DHT22;46342;49.046;11.920;2022-10-26T13:59:42;18.70;73.70
60495;DHT22;46342;49.046;11.920;2022-10-26T14:02:25;18.70;73.60
60495;DHT22;46342;49.046;11.920;2022-10-26T14:05:04;18.70;73.30
60495;DHT22;46342;49.046;11.920;2022-10-26T14:07:38;18.70;73.40
60495;DHT22;46342;49.046;11.920;2022-10-26T14:10:05;18.70;73.50
60495;DHT22;46342;49.046;11.920;2022-10-26T14:12:31;18.70;73.80
60495;DHT22;46342;49.046;11.920;2022-10-26T14:15:08;18.70;73.80
60495;DHT22;46342;49.046;11.920;2022-10-26T14:17:34;18.70;73.70
60495;DHT22;46342;49.046;11.920;2022-10-26T14:20:02;18.70;73.90
60495;DHT22;46342;49.046;11.920;2022-10-26T14:22:28;18.70;73.90
60495;DHT22;46342;49.046;11.920;2022-10-26T14:24:59;18.80;74.00
60495;DHT22;46342;49.046;11.920;2022-10-26T14:27:38;18.80;74.00
60495;DHT22;46342;49.046;11.920;2022-10-26T14:30:23;18.80;73.70
60495;DHT22;46342;49.046;11.920;2022-10-26T14:32:51;18.90;73.90
60495;DHT22;46342;49.046;11.920;2022-10-26T14:35:18;18.80;74.00
60495;DHT22;46342;49.046;11.920;2022-10-26T14:37:52;18.90;74.00
60495;DHT22;46342;49.046;11.920;2022-10-26T14:40:21;18.90;73.80
60495;DHT22;46342;49.046;11.920;2022-10-26T14:42:50;18.90;73.90
60495;DHT22;46342;49.046;11.920;2022-10-26T14:45:28;19.00;74.10
60495;DHT22;46342;49.046;11.920;2022-10-26T14:47:55;18.90;73.90
60495;DHT22;46342;49.046;11.920;2022-10-26T14:50:23;19.00;74.20
60495;DHT22;46342;49.046;11.920;2022-10-26T14:52:57;19.10;74.20
60495;DHT22;46342;49.046;11.920;2022-10-26T14:55:25;19.10;74.00
60495;DHT22;46342;49.046;11.920;2022-10-26T14:57:53;19.10;75.20
60495;DHT22;46342;49.046;11.920;2022-10-26T15:00:30;19.10;74.10
60495;DHT22;46342;49.046;11.920;2022-10-26T15:02:57;19.20;74.10
60495;DHT22;46342;49.046;11.920;2022-10-26T15:07:51;19.20;73.60
60495;DHT22;46342;49.046;11.920;2022-10-26T15:13:29;19.30;72.90
60495;DHT22;46342;49.046;11.920;2022-10-26T15:16:14;19.30;72.80
60495;DHT22;46342;49.046;11.920;2022-10-26T15:18:41;19.20;72.70
60495;DHT22;46342;49.046;11.920;2022-10-26T15:21:24;19.20;72.70
60495;DHT22;46342;49.046;11.920;2022-10-26T15:23:51;19.10;72.10
60495;DHT22;46342;49.046;11.920;2022-10-26T15:26:18;19.10;72.40
60495;DHT22;46342;49.046;11.920;2022-10-26T15:28:44;19.00;72.30
60495;DHT22;46342;49.046;11.920;2022-10-26T15:33:39;19.00;72.20
60495;DHT22;46342;49.046;11.920;2022-10-26T15:36:18;18.90;72.10
60495;DHT22;46342;49.046;11.920;2022-10-26T15:38:45;18.90;71.80
60495;DHT22;46342;49.046;11.920;2022-10-26T15:41:20;18.80;71.90
60495;DHT22;46342;49.046;11.920;2022-10-26T15:43:47;18.80;71.80
60495;DHT22;46342;49.046;11.920;2022-10-26T15:46:13;18.70;71.70
60495;DHT22;46342;49.046;11.920;2022-10-26T15:48:39;18.70;71.80
60495;DHT22;46342;49.046;11.920;2022-10-26T15:51:07;18.60;71.70
60495;DHT22;46342;49.046;11.920;2022-10-26T15:53:35;18.60;71.70
60495;DHT22;46342;49.046;11.920;2022-10-26T15:56:01;18.50;71.80
60495;DHT22;46342;49.046;11.920;2022-10-26T15:58:28;18.40;71.60
60495;DHT22;46342;49.046;11.920;2022-10-26T16:00:55;18.40;72.70
60495;DHT22;46342;49.046;11.920;2022-10-26T16:03:24;18.40;71.90
60495;DHT22;46342;49.046;11.920;2022-10-26T16:05:57;18.30;71.90
60495;DHT22;46342;49.046;11.920;2022-10-26T16:08:23;18.30;72.00
60495;DHT22;46342;49.046;11.920;2022-10-26T16:10:50;18.20;72.10
60495;DHT22;46342;49.046;11.920;2022-10-26T16:13:16;18.20;72.20
60495;DHT22;46342;49.046;11.920;2022-10-26T16:15:42;18.20;73.40
60495;DHT22;46342;49.046;11.920;2022-10-26T16:18:08;18.10;72.50
60495;DHT22;46342;49.046;11.920;2022-10-26T16:20:33;18.10;72.60
60495;DHT22;46342;49.046;11.920;2022-10-26T16:22:59;18.10;72.70
60495;DHT22;46342;49.046;11.920;2022-10-26T16:25:33;18.10;72.70
60495;DHT22;46342;49.046;11.920;2022-10-26T16:27:58;18.00;72.70
60495;DHT22;46342;49.046;11.920;2022-10-26T16:30:24;18.10;72.70
60495;DHT22;46342;49.046;11.920;2022-10-26T16:32:50;18.00;72.50
60495;DHT22;46342;49.046;11.920;2022-10-26T16:35:15;18.00;72.70
60495;DHT22;46342;49.046;11.920;2022-10-26T16:37:41;17.90;72.70
60495;DHT22;46342;49.046;11.920;2022-10-26T16:40:08;17.90;72.80
60495;DHT22;46342;49.046;11.920;2022-10-26T16:42:34;17.90;72.90
60495;DHT22;46342;49.046;11.920;2022-10-26T16:45:01;17.90;73.00
60495;DHT22;46342;49.046;11.920;2022-10-26T16:47:26;17.90;73.00
60495;DHT22;46342;49.046;11.920;2022-10-26T16:49:52;17.80;73.00
60495;DHT22;46342;49.046;11.920;2022-10-26T16:52:18;17.80;73.00
60495;DHT22;46342;49.046;11.920;2022-10-26T16:54:44;17.80;73.00
60495;DHT22;46342;49.046;11.920;2022-10-26T16:57:10;17.80;73.10
60495;DHT22;46342;49.046;11.920;2022-10-26T16:59:36;17.80;73.10
60495;DHT22;46342;49.046;11.920;2022-10-26T17:02:01;17.80;73.20
60495;DHT22;46342;49.046;11.920;2022-10-26T17:04:27;17.80;73.20
60495;DHT22;46342;49.046;11.920;2022-10-26T17:06:52;17.70;73.10
60495;DHT22;46342;49.046;11.920;2022-10-26T17:09:18;17.70;73.10
60495;DHT22;46342;49.046;11.920;2022-10-26T17:11:43;17.70;73.10
60495;DHT22;46342;49.046;11.920;2022-10-26T17:14:09;17.70;73.20
60495;DHT22;46342;49.046;11.920;2022-10-26T17:16:34;17.70;73.20
60495;DHT22;46342;49.046;11.920;2022-10-26T17:19:00;17.60;73.10
60495;DHT22;46342;49.046;11.920;2022-10-26T17:21:28;17.60;73.10
60495;DHT22;46342;49.046;11.920;2022-10-26T17:23:54;17.60;73.30
60495;DHT22;46342;49.046;11.920;2022-10-26T17:26:20;17.60;73.30
60495;DHT22;46342;49.046;11.920;2022-10-26T17:28:53;17.60;73.30
60495;DHT22;46342;49.046;11.920;2022-10-26T17:31:19;17.60;73.50
60495;DHT22;46342;49.046;11.920;2022-10-26T17:33:45;17.60;73.50
60495;DHT22;46342;49.046;11.920;2022-10-26T17:36:16;17.50;73.50
60495;DHT22;46342;49.046;11.920;2022-10-26T17:38:42;17.60;73.70